sensor_id;sensor_type;location;lat;lon;timestamp;pressure;altitude;pressure_sealevel;temperature;humidity
7170;BME280;3626;42.656;23.312;2023-05-01T00:00:05;94523.50;;;10.30;100.00
7170;BME280;3626;42.656;23.312;2023-05-01T00:00:12;94517.53;;;10.30;100.00
7170;BME280;3626;42.656;23.312;2023-05-01T00:00:19;94520.09;;;10.30;100.00
7170;BME280;3626;42.656;23.312;2023-05-01T00:00:25;94517.53;;;10.30;100.00
7170;BME280;3626;42.656;23.312;2023-05-01T00:00:31;94516.72;;;10.29;100.00
7170;BME280;3626;42.656;23.312;2023-05-01T00:00:38;94519.31;;;10.29;100.00
7170;BME280;3626;42.656;23.312;2023-05-01T00:00:44;94514.94;;;10.30;100.00
7170;BME280;3626;42.656;23.312;2023-05-01T00:00:52;94514.16;;;10.29;100.00
7170;BME280;3626;42.656;23.312;2023-05-01T00:00:58;94514.16;;;10.29;100.00
7170;BME280;3626;42.656;23.312;2023-05-01T00:01:05;94521.88;;;10.29;100.00
7170;BME280;3626;42.656;23.312;2023-05-01T00:01:14;94519.47;;;10.27;100.00
7170;BME280;3626;42.656;23.312;2023-05-01T00:01:20;94519.47;;;10.27;100.00
7170;BME280;3626;42.656;23.312;2023-05-01T00:01:26;94516.06;;;10.27;100.00
7170;BME280;3626;42.656;23.312;2023-05-01T00:01:32;94523.81;;;10.27;100.00
7170;BME280;3626;42.656;23.312;2023-05-01T00:01:38;94514.47;;;10.26;100.00
7170;BME280;3626;42.656;23.312;2023-05-01T00:01:44;94521.22;;;10.27;100.00
7170;BME280;3626;42.656;23.312;2023-05-01T00:01:50;94519.63;;;10.26;100.00
7170;BME280;3626;42.656;23.312;2023-05-01T00:01:56;94517.84;;;10.26;100.00
7170;BME280;3626;42.656;23.312;2023-05-01T00:02:02;94512.56;;;10.28;100.00
7170;BME280;3626;42.656;23.312;2023-05-01T00:02:08;94520.28;;;10.28;100.00
7170;BME280;3626;42.656;23.312;2023-05-01T00:02:16;94520.28;;;10.28;100.00
7170;BME280;3626;42.656;23.312;2023-05-01T00:02:22;94523.66;;;10.29;100.00
7170;BME280;3626;42.656;23.312;2023-05-01T00:02:28;94522.88;;;10.28;100.00
7170;BME280;3626;42.656;23.312;2023-05-01T00:02:36;94520.28;;;10.28;100.00
7170;BME280;3626;42.656;23.312;2023-05-01T00:02:43;94520.28;;;10.28;100.00
7170;BME280;3626;42.656;23.312;2023-05-01T00:02:49;94526.25;;;10.29;100.00
7170;BME280;3626;42.656;23.312;2023-05-01T00:02:55;94521.22;;;10.27;100.00
7170;BME280;3626;42.656;23.312;2023-05-01T00:03:01;94515.28;;;10.26;100.00
7170;BME280;3626;42.656;23.312;2023-05-01T00:03:06;94517.06;;;10.26;100.00
7170;BME280;3626;42.656;23.312;2023-05-01T00:03:13;94524.00;;;10.25;100.00
7170;BME280;3626;42.656;23.312;2023-05-01T00:03:19;94525.59;;;10.26;100.00
7170;BME280;3626;42.656;23.312;2023-05-01T00:03:25;94518.84;;;10.25;100.00
7170;BME280;3626;42.656;23.312;2023-05-01T00:03:31;94519.63;;;10.26;100.00
7170;BME280;3626;42.656;23.312;2023-05-01T00:03:37;94514.66;;;10.24;100.00
7170;BME280;3626;42.656;23.312;2023-05-01T00:03:43;94517.22;;;10.24;100.00
7170;BME280;3626;42.656;23.312;2023-05-01T00:03:49;94525.78;;;10.25;100.00
7170;BME280;3626;42.656;23.312;2023-05-01T00:03:55;94518.03;;;10.25;100.00
7170;BME280;3626;42.656;23.312;2023-05-01T00:04:03;94522.38;;;10.24;100.00
7170;BME280;3626;42.656;23.312;2023-05-01T00:04:09;94515.44;;;10.25;100.00
7170;BME280;3626;42.656;23.312;2023-05-01T00:04:15;94519.81;;;10.24;100.00
7170;BME280;3626;42.656;23.312;2023-05-01T00:04:21;94518.84;;;10.25;100.00
7170;BME280;3626;42.656;23.312;2023-05-01T00:04:27;94518.03;;;10.25;100.00
7170;BME280;3626;42.656;23.312;2023-05-01T00:04:33;94521.56;;;10.24;100.00
7170;BME280;3626;42.656;23.312;2023-05-01T00:04:39;94513.97;;;10.22;100.00
7170;BME280;3626;42.656;23.312;2023-05-01T00:04:45;94521.72;;;10.22;100.00
7170;BME280;3626;42.656;23.312;2023-05-01T00:04:51;94522.50;;;10.23;100.00
7170;BME280;3626;42.656;23.312;2023-05-01T00:04:57;94524.28;;;10.22;100.00
7170;BME280;3626;42.656;23.312;2023-05-01T00:05:04;94519.94;;;10.23;100.00
7170;BME280;3626;42.656;23.312;2023-05-01T00:05:10;94520.09;;;10.21;100.00
7170;BME280;3626;42.656;23.312;2023-05-01T00:05:17;94515.75;;;10.22;100.00
7170;BME280;3626;42.656;23.312;2023-05-01T00:05:23;94513.97;;;10.22;100.00
7170;BME280;3626;42.656;23.312;2023-05-01T00:05:31;94511.56;;;10.21;100.00
7170;BME280;3626;42.656;23.312;2023-05-01T00:05:37;94521.88;;;10.21;100.00
7170;BME280;3626;42.656;23.312;2023-05-01T00:05:44;94516.72;;;10.21;100.00
7170;BME280;3626;42.656;23.312;2023-05-01T00:05:49;94508.34;;;10.19;100.00
7170;BME280;3626;42.656;23.312;2023-05-01T00:05:58;94517.84;;;10.18;100.00
7170;BME280;3626;42.656;23.312;2023-05-01T00:06:05;94517.84;;;10.18;100.00
7170;BME280;3626;42.656;23.312;2023-05-01T00:06:12;94514.47;;;10.18;100.00
7170;BME280;3626;42.656;23.312;2023-05-01T00:06:18;94520.44;;;10.18;100.00
7170;BME280;3626;42.656;23.312;2023-05-01T00:06:24;94517.84;;;10.18;100.00
7170;BME280;3626;42.656;23.312;2023-05-01T00:06:30;94523.81;;;10.19;100.00
7170;BME280;3626;42.656;23.312;2023-05-01T00:06:37;94520.44;;;10.18;100.00
7170;BME280;3626;42.656;23.312;2023-05-01T00:06:43;94519.44;;;10.19;100.00
7170;BME280;3626;42.656;23.312;2023-05-01T00:06:50;94521.22;;;10.19;100.00
7170;BME280;3626;42.656;23.312;2023-05-01T00:06:56;94518.66;;;10.19;100.00
7170;BME280;3626;42.656;23.312;2023-05-01T00:07:05;94517.03;;;10.18;100.00
7170;BME280;3626;42.656;23.312;2023-05-01T00:07:11;94516.25;;;10.17;100.00
7170;BME280;3626;42.656;23.312;2023-05-01T00:07:17;94521.41;;;10.17;100.00
7170;BME280;3626;42.656;23.312;2023-05-01T00:07:23;94523.19;;;10.17;100.00
7170;BME280;3626;42.656;23.312;2023-05-01T00:07:29;94520.59;;;10.17;100.00
7170;BME280;3626;42.656;23.312;2023-05-01T00:07:36;94519.94;;;10.15;100.00
7170;BME280;3626;42.656;23.312;2023-05-01T00:07:42;94519.00;;;10.16;100.00
7170;BME280;3626;42.656;23.312;2023-05-01T00:07:48;94521.59;;;10.16;100.00
7170;BME280;3626;42.656;23.312;2023-05-01T00:07:54;94524.16;;;10.16;100.00
7170;BME280;3626;42.656;23.312;2023-05-01T00:08:00;94525.09;;;10.15;100.00
7170;BME280;3626;42.656;23.312;2023-05-01T00:08:06;94526.88;;;10.14;100.00
7170;BME280;3626;42.656;23.312;2023-05-01T00:08:12;94521.72;;;10.14;100.00
7170;BME280;3626;42.656;23.312;2023-05-01T00:08:18;94519.00;;;10.16;100.00
7170;BME280;3626;42.656;23.312;2023-05-01T00:08:25;94525.94;;;10.15;100.00
7170;BME280;3626;42.656;23.312;2023-05-01T00:08:32;94521.59;;;10.16;100.00
7170;BME280;3626;42.656;23.312;2023-05-01T00:08:38;94521.59;;;10.16;100.00
7170;BME280;3626;42.656;23.312;2023-05-01T00:08:44;94523.19;;;10.17;100.00
7170;BME280;3626;42.656;23.312;2023-05-01T00:08:50;94523.19;;;10.17;100.00
7170;BME280;3626;42.656;23.312;2023-05-01T00:08:56;94521.59;;;10.16;100.00
7170;BME280;3626;42.656;23.312;2023-05-01T00:09:02;94523.19;;;10.17;100.00
7170;BME280;3626;42.656;23.312;2023-05-01T00:09:08;94524.97;;;10.16;100.00
7170;BME280;3626;42.656;23.312;2023-05-01T00:09:15;94521.59;;;10.16;100.00
7170;BME280;3626;42.656;23.312;2023-05-01T00:09:21;94517.38;;;10.15;100.00
7170;BME280;3626;42.656;23.312;2023-05-01T00:09:27;94520.94;;;10.14;100.00
7170;BME280;3626;42.656;23.312;2023-05-01T00:09:33;94521.72;;;10.14;100.00
7170;BME280;3626;42.656;23.312;2023-05-01T00:09:39;94526.88;;;10.14;100.00
7170;BME280;3626;42.656;23.312;2023-05-01T00:09:45;94522.72;;;10.13;100.00
7170;BME280;3626;42.656;23.312;2023-05-01T00:09:51;94525.47;;;10.12;100.00
7170;BME280;3626;42.656;23.312;2023-05-01T00:10:00;94516.94;;;10.11;100.00
7170;BME280;3626;42.656;23.312;2023-05-01T00:10:07;94521.25;;;10.11;100.00
7170;BME280;3626;42.656;23.312;2023-05-01T00:10:13;94521.25;;;10.11;100.00
7170;BME280;3626;42.656;23.312;2023-05-01T00:10:19;94518.66;;;10.11;100.00
7170;BME280;3626;42.656;23.312;2023-05-01T00:10:25;94519.66;;;10.10;100.00
7170;BME280;3626;42.656;23.312;2023-05-01T00:10:34;94520.44;;;10.10;100.00
7170;BME280;3626;42.656;23.312;2023-05-01T00:10:40;94521.25;;;10.11;100.00
7170;BME280;3626;42.656;23.312;2023-05-01T00:10:46;94523.81;;;10.11;100.00
7170;BME280;3626;42.656;23.312;2023-05-01T00:10:52;94523.81;;;10.11;100.00
7170;BME280;3626;42.656;23.312;2023-05-01T00:11:01;94523.81;;;10.11;100.00
7170;BME280;3626;42.656;23.312;2023-05-01T00:11:07;94522.09;;;10.11;100.00
7170;BME280;3626;42.656;23.312;2023-05-01T00:11:16;94520.31;;;10.12;100.00
7170;BME280;3626;42.656;23.312;2023-05-01T00:11:22;94522.09;;;10.11;100.00
7170;BME280;3626;42.656;23.312;2023-05-01T00:11:30;94529.63;;;10.13;100.00
7170;BME280;3626;42.656;23.312;2023-05-01T00:11:36;94522.09;;;10.11;100.00
7170;BME280;3626;42.656;23.312;2023-05-01T00:11:42;94519.50;;;10.11;100.00
7170;BME280;3626;42.656;23.312;2023-05-01T00:11:48;94528.03;;;10.12;100.00
7170;BME280;3626;42.656;23.312;2023-05-01T00:11:55;94518.66;;;10.11;100.00
7170;BME280;3626;42.656;23.312;2023-05-01T00:12:01;94521.25;;;10.11;100.00
7170;BME280;3626;42.656;23.312;2023-05-01T00:12:09;94522.09;;;10.11;100.00
7170;BME280;3626;42.656;23.312;2023-05-01T00:12:16;94523.81;;;10.11;100.00
7170;BME280;3626;42.656;23.312;2023-05-01T00:12:22;94520.44;;;10.10;100.00
7170;BME280;3626;42.656;23.312;2023-05-01T00:12:28;94519.50;;;10.11;100.00
7170;BME280;3626;42.656;23.312;2023-05-01T00:12:34;94516.94;;;10.11;100.00
7170;BME280;3626;42.656;23.312;2023-05-01T00:12:40;94519.50;;;10.11;100.00
7170;BME280;3626;42.656;23.312;2023-05-01T00:12:46;94522.88;;;10.12;100.00
7170;BME280;3626;42.656;23.312;2023-05-01T00:12:52;94518.53;;;10.12;100.00
7170;BME280;3626;42.656;23.312;2023-05-01T00:12:59;94526.25;;;10.12;100.00
7170;BME280;3626;42.656;23.312;2023-05-01T00:13:05;94524.47;;;10.13;100.00
7170;BME280;3626;42.656;23.312;2023-05-01T00:13:11;94526.09;;;10.14;100.00
7170;BME280;3626;42.656;23.312;2023-05-01T00:13:17;94522.53;;;10.15;100.00
7170;BME280;3626;42.656;23.312;2023-05-01T00:13:26;94520.94;;;10.14;100.00
7170;BME280;3626;42.656;23.312;2023-05-01T00:13:32;94523.50;;;10.14;100.00
7170;BME280;3626;42.656;23.312;2023-05-01T00:13:38;94517.53;;;10.13;100.00
7170;BME280;3626;42.656;23.312;2023-05-01T00:13:44;94523.50;;;10.14;100.00
7170;BME280;3626;42.656;23.312;2023-05-01T00:13:50;94514.97;;;10.13;100.00
7170;BME280;3626;42.656;23.312;2023-05-01T00:13:56;94525.28;;;10.13;100.00
7170;BME280;3626;42.656;23.312;2023-05-01T00:14:02;94520.13;;;10.13;100.00
7170;BME280;3626;42.656;23.312;2023-05-01T00:14:08;94520.13;;;10.13;100.00
7170;BME280;3626;42.656;23.312;2023-05-01T00:14:14;94521.91;;;10.13;100.00
7170;BME280;3626;42.656;23.312;2023-05-01T00:14:20;94521.91;;;10.13;100.00
7170;BME280;3626;42.656;23.312;2023-05-01T00:14:27;94526.25;;;10.12;100.00
7170;BME280;3626;42.656;23.312;2023-05-01T00:14:36;94521.25;;;10.11;100.00
7170;BME280;3626;42.656;23.312;2023-05-01T00:14:42;94517.88;;;10.10;100.00
7170;BME280;3626;42.656;23.312;2023-05-01T00:14:48;94521.44;;;10.09;100.00
7170;BME280;3626;42.656;23.312;2023-05-01T00:14:54;94520.44;;;10.10;100.00
7170;BME280;3626;42.656;23.312;2023-05-01T00:15:00;94518.84;;;10.09;100.00
7170;BME280;3626;42.656;23.312;2023-05-01T00:15:07;94514.50;;;10.10;100.00
7170;BME280;3626;42.656;23.312;2023-05-01T00:15:13;94517.25;;;10.08;100.00
7170;BME280;3626;42.656;23.312;2023-05-01T00:15:20;94519.66;;;10.10;100.00
7170;BME280;3626;42.656;23.312;2023-05-01T00:15:26;94520.63;;;10.09;100.00
7170;BME280;3626;42.656;23.312;2023-05-01T00:15:32;94525.97;;;10.07;100.00
7170;BME280;3626;42.656;23.312;2023-05-01T00:15:40;94524.19;;;10.08;100.00
7170;BME280;3626;42.656;23.312;2023-05-01T00:15:47;94520.81;;;10.07;100.00
7170;BME280;3626;42.656;23.312;2023-05-01T00:15:53;94522.41;;;10.08;100.00
7170;BME280;3626;42.656;23.312;2023-05-01T00:16:00;94516.44;;;10.08;100.00
7170;BME280;3626;42.656;23.312;2023-05-01T00:16:09;94515.66;;;10.07;100.00
7170;BME280;3626;42.656;23.312;2023-05-01T00:16:15;94519.03;;;10.08;100.00
7170;BME280;3626;42.656;23.312;2023-05-01T00:16:22;94517.25;;;10.08;100.00
7170;BME280;3626;42.656;23.312;2023-05-01T00:16:28;94521.59;;;10.08;100.00
7170;BME280;3626;42.656;23.312;2023-05-01T00:16:34;94518.22;;;10.07;100.00
7170;BME280;3626;42.656;23.312;2023-05-01T00:16:40;94515.66;;;10.07;100.00
7170;BME280;3626;42.656;23.312;2023-05-01T00:16:47;94521.59;;;10.08;100.00
7170;BME280;3626;42.656;23.312;2023-05-01T00:16:53;94521.59;;;10.08;100.00
7170;BME280;3626;42.656;23.312;2023-05-01T00:16:59;94514.66;;;10.08;100.00
7170;BME280;3626;42.656;23.312;2023-05-01T00:17:05;94516.44;;;10.08;100.00
7170;BME280;3626;42.656;23.312;2023-05-01T00:17:11;94529.47;;;10.06;100.00
7170;BME280;3626;42.656;23.312;2023-05-01T00:17:20;94519.97;;;10.07;100.00
7170;BME280;3626;42.656;23.312;2023-05-01T00:17:28;94520.81;;;10.07;100.00
7170;BME280;3626;42.656;23.312;2023-05-01T00:17:37;94528.53;;;10.07;100.00
7170;BME280;3626;42.656;23.312;2023-05-01T00:17:43;94521.75;;;10.06;100.00
7170;BME280;3626;42.656;23.312;2023-05-01T00:17:49;94520.94;;;10.06;100.00
7170;BME280;3626;42.656;23.312;2023-05-01T00:17:56;94517.38;;;10.07;100.00
7170;BME280;3626;42.656;23.312;2023-05-01T00:18:02;94518.22;;;10.07;100.00
7170;BME280;3626;42.656;23.312;2023-05-01T00:18:08;94523.38;;;10.07;100.00
7170;BME280;3626;42.656;23.312;2023-05-01T00:18:15;94519.16;;;10.06;100.00
7170;BME280;3626;42.656;23.312;2023-05-01T00:18:21;94521.75;;;10.06;100.00
7170;BME280;3626;42.656;23.312;2023-05-01T00:18:29;94521.91;;;10.05;100.00
7170;BME280;3626;42.656;23.312;2023-05-01T00:18:35;94520.94;;;10.06;100.00
7170;BME280;3626;42.656;23.312;2023-05-01T00:18:41;94519.34;;;10.05;100.00
7170;BME280;3626;42.656;23.312;2023-05-01T00:18:47;94521.13;;;10.04;100.00
7170;BME280;3626;42.656;23.312;2023-05-01T00:18:53;94523.69;;;10.04;100.00
7170;BME280;3626;42.656;23.312;2023-05-01T00:19:02;94513.56;;;10.02;100.00
7170;BME280;3626;42.656;23.312;2023-05-01T00:19:09;94527.25;;;10.03;100.00
7170;BME280;3626;42.656;23.312;2023-05-01T00:19:16;94526.28;;;10.04;100.00
7170;BME280;3626;42.656;23.312;2023-05-01T00:19:22;94523.69;;;10.04;100.00
7170;BME280;3626;42.656;23.312;2023-05-01T00:19:28;94525.63;;;10.02;100.00
7170;BME280;3626;42.656;23.312;2023-05-01T00:19:35;94523.03;;;10.02;100.00
7170;BME280;3626;42.656;23.312;2023-05-01T00:19:41;94525.63;;;10.02;100.00
7170;BME280;3626;42.656;23.312;2023-05-01T00:19:50;94523.03;;;10.02;100.00
7170;BME280;3626;42.656;23.312;2023-05-01T00:19:56;94529.19;;;10.01;100.00
7170;BME280;3626;42.656;23.312;2023-05-01T00:20:02;94520.66;;;10.00;100.00
7170;BME280;3626;42.656;23.312;2023-05-01T00:20:10;94525.63;;;10.02;100.00
7170;BME280;3626;42.656;23.312;2023-05-01T00:20:19;94515.31;;;10.02;100.00
7170;BME280;3626;42.656;23.312;2023-05-01T00:20:25;94529.03;;;10.02;100.00
7170;BME280;3626;42.656;23.312;2023-05-01T00:20:31;94526.44;;;10.02;100.00
7170;BME280;3626;42.656;23.312;2023-05-01T00:20:37;94527.25;;;10.03;100.00
7170;BME280;3626;42.656;23.312;2023-05-01T00:20:43;94521.28;;;10.02;100.00
7170;BME280;3626;42.656;23.312;2023-05-01T00:20:49;94518.72;;;10.02;100.00
7170;BME280;3626;42.656;23.312;2023-05-01T00:20:55;94516.13;;;10.02;100.00
7170;BME280;3626;42.656;23.312;2023-05-01T00:21:01;94525.47;;;10.04;100.00
7170;BME280;3626;42.656;23.312;2023-05-01T00:21:08;94528.19;;;10.02;100.00
7170;BME280;3626;42.656;23.312;2023-05-01T00:21:13;94523.88;;;10.02;100.00
7170;BME280;3626;42.656;23.312;2023-05-01T00:21:20;94528.06;;;10.04;100.00
7170;BME280;3626;42.656;23.312;2023-05-01T00:21:26;94525.47;;;10.04;100.00
7170;BME280;3626;42.656;23.312;2023-05-01T00:21:34;94523.69;;;10.04;100.00
7170;BME280;3626;42.656;23.312;2023-05-01T00:21:40;94522.91;;;10.04;100.00
7170;BME280;3626;42.656;23.312;2023-05-01T00:21:46;94530.63;;;10.04;100.00
7170;BME280;3626;42.656;23.312;2023-05-01T00:21:52;94525.47;;;10.04;100.00
7170;BME280;3626;42.656;23.312;2023-05-01T00:21:58;94526.28;;;10.04;100.00
7170;BME280;3626;42.656;23.312;2023-05-01T00:22:04;94520.31;;;10.04;100.00
7170;BME280;3626;42.656;23.312;2023-05-01T00:22:10;94524.50;;;10.05;100.00
7170;BME280;3626;42.656;23.312;2023-05-01T00:22:16;94525.47;;;10.04;100.00
7170;BME280;3626;42.656;23.312;2023-05-01T00:22:22;94526.28;;;10.04;100.00
7170;BME280;3626;42.656;23.312;2023-05-01T00:22:28;94521.91;;;10.05;100.00
7170;BME280;3626;42.656;23.312;2023-05-01T00:22:34;94525.47;;;10.04;100.00
7170;BME280;3626;42.656;23.312;2023-05-01T00:22:41;94527.41;;;10.01;100.00
7170;BME280;3626;42.656;23.312;2023-05-01T00:22:49;94527.56;;;10.00;100.00
7170;BME280;3626;42.656;23.312;2023-05-01T00:22:55;94516.47;;;9.99;100.00
7170;BME280;3626;42.656;23.312;2023-05-01T00:23:02;94524.34;;;9.98;100.00
7170;BME280;3626;42.656;23.312;2023-05-01T00:23:08;94526.91;;;9.98;100.00
7170;BME280;3626;42.656;23.312;2023-05-01T00:23:14;94521.75;;;9.98;100.00
7170;BME280;3626;42.656;23.312;2023-05-01T00:23:20;94531.28;;;9.97;100.00
7170;BME280;3626;42.656;23.312;2023-05-01T00:23:26;94524.53;;;9.96;100.00
7170;BME280;3626;42.656;23.312;2023-05-01T00:23:32;94527.91;;;9.97;100.00
7170;BME280;3626;42.656;23.312;2023-05-01T00:23:38;94529.50;;;9.98;100.00
7170;BME280;3626;42.656;23.312;2023-05-01T00:23:44;94520.97;;;9.97;100.00
7170;BME280;3626;42.656;23.312;2023-05-01T00:23:50;94526.91;;;9.98;100.00
7170;BME280;3626;42.656;23.312;2023-05-01T00:23:56;94522.59;;;9.98;100.00
7170;BME280;3626;42.656;23.312;2023-05-01T00:24:02;94529.34;;;9.99;100.00
7170;BME280;3626;42.656;23.312;2023-05-01T00:24:08;94529.34;;;9.99;100.00
7170;BME280;3626;42.656;23.312;2023-05-01T00:24:14;94529.34;;;9.99;100.00
7170;BME280;3626;42.656;23.312;2023-05-01T00:24:23;94526.78;;;9.99;100.00
7170;BME280;3626;42.656;23.312;2023-05-01T00:24:30;94531.94;;;9.99;100.00
7170;BME280;3626;42.656;23.312;2023-05-01T00:24:36;94527.56;;;10.00;100.00
7170;BME280;3626;42.656;23.312;2023-05-01T00:24:42;94528.38;;;10.00;100.00
7170;BME280;3626;42.656;23.312;2023-05-01T00:24:48;94532.72;;;10.00;100.00
7170;BME280;3626;42.656;23.312;2023-05-01T00:24:54;94530.31;;;9.98;100.00
7170;BME280;3626;42.656;23.312;2023-05-01T00:25:00;94520.16;;;9.97;100.00
7170;BME280;3626;42.656;23.312;2023-05-01T00:25:07;94527.09;;;9.96;100.00
7170;BME280;3626;42.656;23.312;2023-05-01T00:25:13;94525.31;;;9.97;100.00
7170;BME280;3626;42.656;23.312;2023-05-01T00:25:20;94529.69;;;9.96;100.00
7170;BME280;3626;42.656;23.312;2023-05-01T00:25:29;94522.91;;;9.95;100.00
7170;BME280;3626;42.656;23.312;2023-05-01T00:25:35;94529.69;;;9.96;100.00
7170;BME280;3626;42.656;23.312;2023-05-01T00:25:41;94524.69;;;9.95;100.00
7170;BME280;3626;42.656;23.312;2023-05-01T00:25:48;94528.88;;;9.96;100.00
7170;BME280;3626;42.656;23.312;2023-05-01T00:25:54;94522.91;;;9.95;100.00
7170;BME280;3626;42.656;23.312;2023-05-01T00:26:00;94526.28;;;9.96;100.00
7170;BME280;3626;42.656;23.312;2023-05-01T00:26:06;94529.69;;;9.96;100.00
7170;BME280;3626;42.656;23.312;2023-05-01T00:26:12;94529.69;;;9.96;100.00
7170;BME280;3626;42.656;23.312;2023-05-01T00:26:18;94525.31;;;9.97;100.00
7170;BME280;3626;42.656;23.312;2023-05-01T00:26:24;94527.09;;;9.96;100.00
7170;BME280;3626;42.656;23.312;2023-05-01T00:26:34;94529.69;;;9.96;100.00
7170;BME280;3626;42.656;23.312;2023-05-01T00:26:40;94527.09;;;9.96;100.00
7170;BME280;3626;42.656;23.312;2023-05-01T00:26:46;94524.69;;;9.95;100.00
7170;BME280;3626;42.656;23.312;2023-05-01T00:26:52;94526.28;;;9.96;100.00
7170;BME280;3626;42.656;23.312;2023-05-01T00:27:01;94525.50;;;9.95;100.00
7170;BME280;3626;42.656;23.312;2023-05-01T00:27:08;94523.91;;;9.94;100.00
7170;BME280;3626;42.656;23.312;2023-05-01T00:27:14;94525.50;;;9.95;100.00
7170;BME280;3626;42.656;23.312;2023-05-01T00:27:20;94521.13;;;9.96;100.00
7170;BME280;3626;42.656;23.312;2023-05-01T00:27:26;94525.50;;;9.95;100.00
7170;BME280;3626;42.656;23.312;2023-05-01T00:27:32;94527.09;;;9.96;100.00
7170;BME280;3626;42.656;23.312;2023-05-01T00:27:38;94533.06;;;9.97;100.00
7170;BME280;3626;42.656;23.312;2023-05-01T00:27:44;94528.69;;;9.97;100.00
7170;BME280;3626;42.656;23.312;2023-05-01T00:27:50;94530.31;;;9.98;100.00
7170;BME280;3626;42.656;23.312;2023-05-01T00:27:56;94528.56;;;9.99;100.00
7170;BME280;3626;42.656;23.312;2023-05-01T00:28:03;94526.78;;;9.99;100.00
7170;BME280;3626;42.656;23.312;2023-05-01T00:28:10;94528.38;;;10.00;100.00
7170;BME280;3626;42.656;23.312;2023-05-01T00:28:19;94524.81;;;10.01;100.00
7170;BME280;3626;42.656;23.312;2023-05-01T00:28:25;94523.03;;;10.02;100.00
7170;BME280;3626;42.656;23.312;2023-05-01T00:28:31;94518.72;;;10.02;100.00
7170;BME280;3626;42.656;23.312;2023-05-01T00:28:37;94529.03;;;10.02;100.00
7170;BME280;3626;42.656;23.312;2023-05-01T00:28:43;94529.03;;;10.02;100.00
7170;BME280;3626;42.656;23.312;2023-05-01T00:28:49;94528.06;;;10.04;100.00
7170;BME280;3626;42.656;23.312;2023-05-01T00:28:55;94527.06;;;10.05;100.00
7170;BME280;3626;42.656;23.312;2023-05-01T00:29:01;94533.22;;;10.04;100.00
7170;BME280;3626;42.656;23.312;2023-05-01T00:29:07;94531.44;;;10.04;100.00
7170;BME280;3626;42.656;23.312;2023-05-01T00:29:14;94525.47;;;10.04;100.00
7170;BME280;3626;42.656;23.312;2023-05-01T00:29:21;94527.06;;;10.05;100.00
7170;BME280;3626;42.656;23.312;2023-05-01T00:29:27;94528.06;;;10.04;100.00
7170;BME280;3626;42.656;23.312;2023-05-01T00:29:33;94529.66;;;10.05;100.00
7170;BME280;3626;42.656;23.312;2023-05-01T00:29:39;94534.00;;;10.04;100.00
7170;BME280;3626;42.656;23.312;2023-05-01T00:29:48;94523.88;;;10.02;100.00
7170;BME280;3626;42.656;23.312;2023-05-01T00:29:55;94525.63;;;10.02;100.00
7170;BME280;3626;42.656;23.312;2023-05-01T00:30:03;94528.19;;;10.02;100.00
7170;BME280;3626;42.656;23.312;2023-05-01T00:30:10;94526.59;;;10.01;100.00
7170;BME280;3626;42.656;23.312;2023-05-01T00:30:17;94530.94;;;10.00;100.00
7170;BME280;3626;42.656;23.312;2023-05-01T00:30:23;94528.38;;;10.00;100.00
7170;BME280;3626;42.656;23.312;2023-05-01T00:30:29;94528.38;;;10.00;100.00
7170;BME280;3626;42.656;23.312;2023-05-01T00:30:35;94526.78;;;9.99;100.00
7170;BME280;3626;42.656;23.312;2023-05-01T00:30:41;94528.38;;;10.00;100.00
7170;BME280;3626;42.656;23.312;2023-05-01T00:30:47;94527.56;;;10.00;100.00
7170;BME280;3626;42.656;23.312;2023-05-01T00:30:53;94530.94;;;10.00;100.00
7170;BME280;3626;42.656;23.312;2023-05-01T00:30:59;94525.00;;;10.00;100.00
7170;BME280;3626;42.656;23.312;2023-05-01T00:31:08;94526.78;;;9.99;100.00
7170;BME280;3626;42.656;23.312;2023-05-01T00:31:14;94520.03;;;9.98;100.00
7170;BME280;3626;42.656;23.312;2023-05-01T00:31:20;94531.94;;;9.99;100.00
7170;BME280;3626;42.656;23.312;2023-05-01T00:31:26;94525.00;;;10.00;100.00
7170;BME280;3626;42.656;23.312;2023-05-01T00:31:32;94525.78;;;10.00;100.00
7170;BME280;3626;42.656;23.312;2023-05-01T00:31:38;94525.78;;;10.00;100.00
7170;BME280;3626;42.656;23.312;2023-05-01T00:31:46;94530.16;;;10.00;100.00
7170;BME280;3626;42.656;23.312;2023-05-01T00:31:53;94531.13;;;9.99;100.00
7170;BME280;3626;42.656;23.312;2023-05-01T00:31:59;94531.94;;;9.99;100.00
7170;BME280;3626;42.656;23.312;2023-05-01T00:32:05;94533.72;;;9.99;100.00
7170;BME280;3626;42.656;23.312;2023-05-01T00:32:11;94531.13;;;9.99;100.00
7170;BME280;3626;42.656;23.312;2023-05-01T00:32:19;94528.56;;;9.99;100.00
7170;BME280;3626;42.656;23.312;2023-05-01T00:32:25;94531.13;;;9.99;100.00
7170;BME280;3626;42.656;23.312;2023-05-01T00:32:31;94529.50;;;9.98;100.00
7170;BME280;3626;42.656;23.312;2023-05-01T00:32:40;94527.75;;;9.98;100.00
7170;BME280;3626;42.656;23.312;2023-05-01T00:32:46;94528.56;;;9.99;100.00
7170;BME280;3626;42.656;23.312;2023-05-01T00:32:52;94524.19;;;9.99;100.00
7170;BME280;3626;42.656;23.312;2023-05-01T00:32:58;94530.16;;;10.00;100.00
7170;BME280;3626;42.656;23.312;2023-05-01T00:33:05;94529.34;;;9.99;100.00
7170;BME280;3626;42.656;23.312;2023-05-01T00:33:11;94526.78;;;9.99;100.00
7170;BME280;3626;42.656;23.312;2023-05-01T00:33:17;94530.31;;;9.98;100.00
7170;BME280;3626;42.656;23.312;2023-05-01T00:33:23;94528.56;;;9.99;100.00
7170;BME280;3626;42.656;23.312;2023-05-01T00:33:29;94532.91;;;9.98;100.00
7170;BME280;3626;42.656;23.312;2023-05-01T00:33:35;94532.72;;;10.00;100.00
7170;BME280;3626;42.656;23.312;2023-05-01T00:33:41;94530.16;;;10.00;100.00
7170;BME280;3626;42.656;23.312;2023-05-01T00:33:47;94531.94;;;9.99;100.00
7170;BME280;3626;42.656;23.312;2023-05-01T00:33:53;94525.00;;;10.00;100.00
7170;BME280;3626;42.656;23.312;2023-05-01T00:34:00;94528.38;;;10.00;100.00
7170;BME280;3626;42.656;23.312;2023-05-01T00:34:09;94527.75;;;9.98;100.00
7170;BME280;3626;42.656;23.312;2023-05-01T00:34:16;94530.16;;;10.00;100.00
7170;BME280;3626;42.656;23.312;2023-05-01T00:34:22;94528.38;;;10.00;100.00
7170;BME280;3626;42.656;23.312;2023-05-01T00:34:29;94528.56;;;9.99;100.00